sensor_id;sensor_type;location;lat;lon;timestamp;temperature;humidity
48535;DHT22;34323;52.022;5.686;2024-03-23T00:53:55;14.90;99.90
48535;DHT22;34323;52.022;5.686;2024-03-23T00:56:21;14.80;99.90
48535;DHT22;34323;52.022;5.686;2024-03-23T00:58:47;14.80;99.90
48535;DHT22;34323;52.022;5.686;2024-03-23T01:01:13;14.80;99.90
48535;DHT22;34323;52.022;5.686;2024-03-23T01:03:38;14.90;99.90
48535;DHT22;34323;52.022;5.686;2024-03-23T01:06:04;15.10;99.90
48535;DHT22;34323;52.022;5.686;2024-03-23T01:08:30;15.20;99.90
48535;DHT22;34323;52.022;5.686;2024-03-23T01:11:00;14.90;99.90
48535;DHT22;34323;52.022;5.686;2024-03-23T01:13:27;15.10;99.90
48535;DHT22;34323;52.022;5.686;2024-03-23T01:15:54;14.70;99.90
48535;DHT22;34323;52.022;5.686;2024-03-23T01:18:21;14.90;99.90
48535;DHT22;34323;52.022;5.686;2024-03-23T01:20:47;14.80;99.90
48535;DHT22;34323;52.022;5.686;2024-03-23T01:23:13;14.70;99.90
48535;DHT22;34323;52.022;5.686;2024-03-23T01:25:40;14.50;99.90
48535;DHT22;34323;52.022;5.686;2024-03-23T01:28:06;14.80;99.90
48535;DHT22;34323;52.022;5.686;2024-03-23T01:30:33;14.90;99.90
48535;DHT22;34323;52.022;5.686;2024-03-23T01:32:59;14.50;99.90
48535;DHT22;34323;52.022;5.686;2024-03-23T01:35:25;15.00;99.90
48535;DHT22;34323;52.022;5.686;2024-03-23T01:37:52;14.90;99.90
48535;DHT22;34323;52.022;5.686;2024-03-23T01:40:18;14.80;99.90
48535;DHT22;34323;52.022;5.686;2024-03-23T01:43:05;14.70;99.90
48535;DHT22;34323;52.022;5.686;2024-03-23T01:45:31;14.90;99.90
48535;DHT22;34323;52.022;5.686;2024-03-23T01:47:58;14.80;99.90
48535;DHT22;34323;52.022;5.686;2024-03-23T01:50:25;14.90;99.90
48535;DHT22;34323;52.022;5.686;2024-03-23T01:52:51;14.90;99.90
48535;DHT22;34323;52.022;5.686;2024-03-23T01:55:17;15.00;99.90
48535;DHT22;34323;52.022;5.686;2024-03-23T01:57:43;15.10;99.90
48535;DHT22;34323;52.022;5.686;2024-03-23T02:00:09;14.90;99.90
48535;DHT22;34323;52.022;5.686;2024-03-23T02:02:46;14.70;99.90
48535;DHT22;34323;52.022;5.686;2024-03-23T02:05:13;14.60;99.90
48535;DHT22;34323;52.022;5.686;2024-03-23T02:07:40;14.50;99.90
48535;DHT22;34323;52.022;5.686;2024-03-23T02:10:07;14.60;99.90
48535;DHT22;34323;52.022;5.686;2024-03-23T02:12:33;14.50;99.90
48535;DHT22;34323;52.022;5.686;2024-03-23T02:14:59;14.40;99.90
48535;DHT22;34323;52.022;5.686;2024-03-23T02:17:25;14.50;99.90
48535;DHT22;34323;52.022;5.686;2024-03-23T02:19:51;14.50;99.90
48535;DHT22;34323;52.022;5.686;2024-03-23T02:22:17;14.60;99.90
48535;DHT22;34323;52.022;5.686;2024-03-23T02:24:43;14.90;99.90
48535;DHT22;34323;52.022;5.686;2024-03-23T02:27:09;14.90;99.90
48535;DHT22;34323;52.022;5.686;2024-03-23T02:29:34;14.60;99.90
48535;DHT22;34323;52.022;5.686;2024-03-23T02:32:00;14.70;99.90
48535;DHT22;34323;52.022;5.686;2024-03-23T02:34:27;14.50;99.90
48535;DHT22;34323;52.022;5.686;2024-03-23T02:36:52;14.50;99.90
48535;DHT22;34323;52.022;5.686;2024-03-23T02:39:18;14.40;99.90
48535;DHT22;34323;52.022;5.686;2024-03-23T02:41:44;14.40;99.90
48535;DHT22;34323;52.022;5.686;2024-03-23T02:44:10;14.20;99.90
48535;DHT22;34323;52.022;5.686;2024-03-23T02:46:38;14.40;99.90
48535;DHT22;34323;52.022;5.686;2024-03-23T02:49:04;14.50;99.90
48535;DHT22;34323;52.022;5.686;2024-03-23T02:51:30;14.50;99.90
48535;DHT22;34323;52.022;5.686;2024-03-23T02:53:56;14.40;99.90
48535;DHT22;34323;52.022;5.686;2024-03-23T02:56:22;14.20;99.90
48535;DHT22;34323;52.022;5.686;2024-03-23T02:58:48;14.20;99.90
48535;DHT22;34323;52.022;5.686;2024-03-23T03:01:14;14.20;99.90
48535;DHT22;34323;52.022;5.686;2024-03-23T03:03:40;14.20;99.90
48535;DHT22;34323;52.022;5.686;2024-03-23T03:06:06;14.00;99.90
48535;DHT22;34323;52.022;5.686;2024-03-23T03:08:32;13.80;99.90
48535;DHT22;34323;52.022;5.686;2024-03-23T03:10:57;13.90;99.90
48535;DHT22;34323;52.022;5.686;2024-03-23T03:13:23;14.00;99.90
48535;DHT22;34323;52.022;5.686;2024-03-23T03:15:49;13.80;99.90
48535;DHT22;34323;52.022;5.686;2024-03-23T03:18:15;13.90;99.90
48535;DHT22;34323;52.022;5.686;2024-03-23T03:20:41;13.80;99.90
48535;DHT22;34323;52.022;5.686;2024-03-23T03:23:07;13.60;99.90
48535;DHT22;34323;52.022;5.686;2024-03-23T03:25:33;13.60;99.90
48535;DHT22;34323;52.022;5.686;2024-03-23T03:27:59;13.70;99.90
48535;DHT22;34323;52.022;5.686;2024-03-23T03:30:25;13.10;99.90
48535;DHT22;34323;52.022;5.686;2024-03-23T03:32:53;13.20;99.90
48535;DHT22;34323;52.022;5.686;2024-03-23T03:35:20;13.30;99.90
48535;DHT22;34323;52.022;5.686;2024-03-23T03:37:46;13.30;99.90
48535;DHT22;34323;52.022;5.686;2024-03-23T03:40:12;13.20;99.90
48535;DHT22;34323;52.022;5.686;2024-03-23T03:42:41;13.50;99.90
48535;DHT22;34323;52.022;5.686;2024-03-23T03:45:07;13.20;99.90
48535;DHT22;34323;52.022;5.686;2024-03-23T03:47:33;13.40;99.90
48535;DHT22;34323;52.022;5.686;2024-03-23T03:49:59;13.60;99.90
48535;DHT22;34323;52.022;5.686;2024-03-23T03:52:25;13.70;99.90
48535;DHT22;34323;52.022;5.686;2024-03-23T03:54:50;13.60;99.90
48535;DHT22;34323;52.022;5.686;2024-03-23T03:57:16;13.40;99.90
48535;DHT22;34323;52.022;5.686;2024-03-23T03:59:42;13.30;99.90
48535;DHT22;34323;52.022;5.686;2024-03-23T04:02:08;13.30;99.90
48535;DHT22;34323;52.022;5.686;2024-03-23T04:04:34;13.50;99.90
48535;DHT22;34323;52.022;5.686;2024-03-23T04:07:01;13.50;99.90
48535;DHT22;34323;52.022;5.686;2024-03-23T04:09:27;13.50;99.90
48535;DHT22;34323;52.022;5.686;2024-03-23T04:11:54;13.30;99.90
48535;DHT22;34323;52.022;5.686;2024-03-23T04:14:19;13.10;99.90
48535;DHT22;34323;52.022;5.686;2024-03-23T04:16:45;13.20;99.90
48535;DHT22;34323;52.022;5.686;2024-03-23T04:19:11;13.30;99.90
48535;DHT22;34323;52.022;5.686;2024-03-23T04:21:37;13.30;99.90
48535;DHT22;34323;52.022;5.686;2024-03-23T04:24:04;13.10;99.90
48535;DHT22;34323;52.022;5.686;2024-03-23T04:26:30;13.10;99.90
48535;DHT22;34323;52.022;5.686;2024-03-23T04:29:05;13.10;99.90
48535;DHT22;34323;52.022;5.686;2024-03-23T04:31:31;13.00;99.90
48535;DHT22;34323;52.022;5.686;2024-03-23T04:34:00;12.80;99.90
48535;DHT22;34323;52.022;5.686;2024-03-23T04:36:26;12.70;99.90
48535;DHT22;34323;52.022;5.686;2024-03-23T04:38:53;12.80;99.90
48535;DHT22;34323;52.022;5.686;2024-03-23T04:41:19;12.90;99.90
48535;DHT22;34323;52.022;5.686;2024-03-23T04:43:45;12.90;99.90
48535;DHT22;34323;52.022;5.686;2024-03-23T04:46:11;12.90;99.90
48535;DHT22;34323;52.022;5.686;2024-03-23T04:48:37;13.10;99.90
48535;DHT22;34323;52.022;5.686;2024-03-23T04:51:03;13.00;99.90
48535;DHT22;34323;52.022;5.686;2024-03-23T04:53:29;12.90;99.90
48535;DHT22;34323;52.022;5.686;2024-03-23T04:55:56;12.70;99.90
48535;DHT22;34323;52.022;5.686;2024-03-23T04:58:22;12.70;99.90
48535;DHT22;34323;52.022;5.686;2024-03-23T05:00:56;12.70;99.90
48535;DHT22;34323;52.022;5.686;2024-03-23T05:03:22;12.70;99.90
48535;DHT22;34323;52.022;5.686;2024-03-23T05:05:49;12.80;99.90
48535;DHT22;34323;52.022;5.686;2024-03-23T05:08:15;12.60;99.90
48535;DHT22;34323;52.022;5.686;2024-03-23T05:10:42;12.70;99.90
48535;DHT22;34323;52.022;5.686;2024-03-23T05:13:08;12.70;99.90
48535;DHT22;34323;52.022;5.686;2024-03-23T05:15:34;12.60;99.90
48535;DHT22;34323;52.022;5.686;2024-03-23T05:18:00;12.60;99.90
48535;DHT22;34323;52.022;5.686;2024-03-23T05:20:26;12.80;99.90
48535;DHT22;34323;52.022;5.686;2024-03-23T05:22:54;12.60;99.90
48535;DHT22;34323;52.022;5.686;2024-03-23T05:25:20;12.50;99.90
48535;DHT22;34323;52.022;5.686;2024-03-23T05:27:46;12.20;99.90
48535;DHT22;34323;52.022;5.686;2024-03-23T05:30:12;12.40;99.90
48535;DHT22;34323;52.022;5.686;2024-03-23T05:32:38;12.40;99.90
48535;DHT22;34323;52.022;5.686;2024-03-23T05:35:07;12.40;99.90
48535;DHT22;34323;52.022;5.686;2024-03-23T05:37:33;12.30;99.90
48535;DHT22;34323;52.022;5.686;2024-03-23T05:40:00;12.40;99.90
48535;DHT22;34323;52.022;5.686;2024-03-23T05:42:26;12.50;99.90
48535;DHT22;34323;52.022;5.686;2024-03-23T05:44:52;12.40;99.90
48535;DHT22;34323;52.022;5.686;2024-03-23T05:47:18;12.40;99.90
48535;DHT22;34323;52.022;5.686;2024-03-23T05:49:45;12.40;99.90
48535;DHT22;34323;52.022;5.686;2024-03-23T05:52:12;12.40;99.90
48535;DHT22;34323;52.022;5.686;2024-03-23T05:54:38;12.30;99.90
48535;DHT22;34323;52.022;5.686;2024-03-23T05:57:04;12.50;99.90
48535;DHT22;34323;52.022;5.686;2024-03-23T05:59:30;12.40;99.90
48535;DHT22;34323;52.022;5.686;2024-03-23T06:01:56;12.40;99.90
48535;DHT22;34323;52.022;5.686;2024-03-23T06:04:22;12.30;99.90
48535;DHT22;34323;52.022;5.686;2024-03-23T06:06:48;12.10;99.90
48535;DHT22;34323;52.022;5.686;2024-03-23T06:09:14;11.80;99.90
48535;DHT22;34323;52.022;5.686;2024-03-23T06:11:40;11.70;99.90
48535;DHT22;34323;52.022;5.686;2024-03-23T06:14:05;11.60;99.90
48535;DHT22;34323;52.022;5.686;2024-03-23T06:16:31;11.80;99.90
48535;DHT22;34323;52.022;5.686;2024-03-23T06:18:57;12.00;99.90
48535;DHT22;34323;52.022;5.686;2024-03-23T06:21:24;11.90;99.90
48535;DHT22;34323;52.022;5.686;2024-03-23T06:23:53;12.00;99.90
48535;DHT22;34323;52.022;5.686;2024-03-23T06:26:20;12.20;99.90
48535;DHT22;34323;52.022;5.686;2024-03-23T06:28:47;12.30;99.90
48535;DHT22;34323;52.022;5.686;2024-03-23T06:31:13;12.20;99.90
48535;DHT22;34323;52.022;5.686;2024-03-23T06:33:39;12.10;99.90
48535;DHT22;34323;52.022;5.686;2024-03-23T06:36:07;12.20;99.90
48535;DHT22;34323;52.022;5.686;2024-03-23T06:38:34;12.40;99.90
48535;DHT22;34323;52.022;5.686;2024-03-23T06:41:02;12.40;99.90
48535;DHT22;34323;52.022;5.686;2024-03-23T06:43:28;12.50;99.90
48535;DHT22;34323;52.022;5.686;2024-03-23T06:45:54;12.50;99.90
48535;DHT22;34323;52.022;5.686;2024-03-23T06:48:21;12.40;99.90
48535;DHT22;34323;52.022;5.686;2024-03-23T06:50:47;12.10;99.90
48535;DHT22;34323;52.022;5.686;2024-03-23T06:53:16;12.10;99.90
48535;DHT22;34323;52.022;5.686;2024-03-23T06:55:42;12.10;99.90
48535;DHT22;34323;52.022;5.686;2024-03-23T06:58:15;11.90;99.90
48535;DHT22;34323;52.022;5.686;2024-03-23T07:00:41;11.90;99.90
48535;DHT22;34323;52.022;5.686;2024-03-23T07:03:06;12.20;99.90
48535;DHT22;34323;52.022;5.686;2024-03-23T07:05:32;11.90;99.90
48535;DHT22;34323;52.022;5.686;2024-03-23T07:07:58;11.60;99.90
48535;DHT22;34323;52.022;5.686;2024-03-23T07:10:24;11.50;99.90
48535;DHT22;34323;52.022;5.686;2024-03-23T07:12:50;11.40;99.90
48535;DHT22;34323;52.022;5.686;2024-03-23T07:15:16;11.50;99.90
48535;DHT22;34323;52.022;5.686;2024-03-23T07:17:41;11.80;99.90
48535;DHT22;34323;52.022;5.686;2024-03-23T07:20:08;12.00;99.90
48535;DHT22;34323;52.022;5.686;2024-03-23T07:22:36;11.80;99.90
48535;DHT22;34323;52.022;5.686;2024-03-23T07:25:02;11.80;99.90
48535;DHT22;34323;52.022;5.686;2024-03-23T07:27:29;11.90;99.90
48535;DHT22;34323;52.022;5.686;2024-03-23T07:29:54;12.20;99.90
48535;DHT22;34323;52.022;5.686;2024-03-23T07:32:20;12.10;99.90
48535;DHT22;34323;52.022;5.686;2024-03-23T07:34:46;12.10;99.90
48535;DHT22;34323;52.022;5.686;2024-03-23T07:37:12;11.90;99.90
48535;DHT22;34323;52.022;5.686;2024-03-23T07:39:39;12.10;99.90
48535;DHT22;34323;52.022;5.686;2024-03-23T07:42:06;12.20;99.90
48535;DHT22;34323;52.022;5.686;2024-03-23T07:44:32;12.00;99.90
48535;DHT22;34323;52.022;5.686;2024-03-23T07:47:00;11.90;99.90
48535;DHT22;34323;52.022;5.686;2024-03-23T07:49:26;11.80;99.90
48535;DHT22;34323;52.022;5.686;2024-03-23T07:51:51;11.40;99.90
48535;DHT22;34323;52.022;5.686;2024-03-23T07:54:17;11.20;99.90
48535;DHT22;34323;52.022;5.686;2024-03-23T07:56:43;11.20;99.90
48535;DHT22;34323;52.022;5.686;2024-03-23T07:59:09;11.40;99.90
48535;DHT22;34323;52.022;5.686;2024-03-23T08:01:36;11.10;99.90
48535;DHT22;34323;52.022;5.686;2024-03-23T08:04:02;11.30;99.90
48535;DHT22;34323;52.022;5.686;2024-03-23T08:06:28;11.50;99.90
48535;DHT22;34323;52.022;5.686;2024-03-23T08:08:57;11.90;99.90
48535;DHT22;34323;52.022;5.686;2024-03-23T08:11:30;12.20;99.90
48535;DHT22;34323;52.022;5.686;2024-03-23T08:13:57;12.30;99.90
48535;DHT22;34323;52.022;5.686;2024-03-23T08:16:23;12.00;99.90
48535;DHT22;34323;52.022;5.686;2024-03-23T08:18:51;12.10;99.90
48535;DHT22;34323;52.022;5.686;2024-03-23T08:21:18;11.80;99.90
48535;DHT22;34323;52.022;5.686;2024-03-23T08:23:44;12.00;99.90
48535;DHT22;34323;52.022;5.686;2024-03-23T08:26:11;12.00;99.90
48535;DHT22;34323;52.022;5.686;2024-03-23T08:28:38;12.00;99.90
48535;DHT22;34323;52.022;5.686;2024-03-23T08:31:06;11.70;99.90
48535;DHT22;34323;52.022;5.686;2024-03-23T08:33:32;11.90;99.90
48535;DHT22;34323;52.022;5.686;2024-03-23T08:36:00;12.20;99.90
48535;DHT22;34323;52.022;5.686;2024-03-23T08:38:27;11.80;99.90
48535;DHT22;34323;52.022;5.686;2024-03-23T08:41:03;11.80;99.90
48535;DHT22;34323;52.022;5.686;2024-03-23T08:43:31;11.70;99.90
48535;DHT22;34323;52.022;5.686;2024-03-23T08:46:11;11.60;99.90
48535;DHT22;34323;52.022;5.686;2024-03-23T08:48:45;11.90;99.90
48535;DHT22;34323;52.022;5.686;2024-03-23T08:51:15;11.80;99.90
48535;DHT22;34323;52.022;5.686;2024-03-23T08:53:41;11.60;99.90
48535;DHT22;34323;52.022;5.686;2024-03-23T08:56:08;12.20;99.90
48535;DHT22;34323;52.022;5.686;2024-03-23T08:58:35;12.40;99.90
48535;DHT22;34323;52.022;5.686;2024-03-23T09:01:19;12.50;99.90
48535;DHT22;34323;52.022;5.686;2024-03-23T09:03:44;12.40;99.90
48535;DHT22;34323;52.022;5.686;2024-03-23T09:06:12;12.30;99.90
48535;DHT22;34323;52.022;5.686;2024-03-23T09:08:39;12.30;99.90
48535;DHT22;34323;52.022;5.686;2024-03-23T09:11:11;12.20;99.90
48535;DHT22;34323;52.022;5.686;2024-03-23T09:13:37;12.10;99.90
48535;DHT22;34323;52.022;5.686;2024-03-23T09:16:05;12.30;99.90
48535;DHT22;34323;52.022;5.686;2024-03-23T09:18:35;12.50;99.90
48535;DHT22;34323;52.022;5.686;2024-03-23T09:21:02;12.60;99.90
48535;DHT22;34323;52.022;5.686;2024-03-23T09:23:28;12.90;99.90
48535;DHT22;34323;52.022;5.686;2024-03-23T09:25:54;12.70;99.90
48535;DHT22;34323;52.022;5.686;2024-03-23T09:28:19;12.80;99.90
48535;DHT22;34323;52.022;5.686;2024-03-23T09:30:45;12.90;99.90
48535;DHT22;34323;52.022;5.686;2024-03-23T09:33:12;13.10;99.90
48535;DHT22;34323;52.022;5.686;2024-03-23T09:35:43;13.20;99.90
48535;DHT22;34323;52.022;5.686;2024-03-23T09:38:10;13.40;99.90
48535;DHT22;34323;52.022;5.686;2024-03-23T09:40:43;13.60;99.90
48535;DHT22;34323;52.022;5.686;2024-03-23T09:43:09;13.80;99.90
48535;DHT22;34323;52.022;5.686;2024-03-23T09:45:45;14.10;99.90
48535;DHT22;34323;52.022;5.686;2024-03-23T09:48:12;13.80;99.90
48535;DHT22;34323;52.022;5.686;2024-03-23T09:50:43;13.40;99.90
48535;DHT22;34323;52.022;5.686;2024-03-23T09:53:13;13.30;99.90
48535;DHT22;34323;52.022;5.686;2024-03-23T09:55:40;13.30;99.90
48535;DHT22;34323;52.022;5.686;2024-03-23T09:58:06;13.00;99.90
48535;DHT22;34323;52.022;5.686;2024-03-23T10:00:33;12.50;99.90
48535;DHT22;34323;52.022;5.686;2024-03-23T10:02:59;12.40;99.90
48535;DHT22;34323;52.022;5.686;2024-03-23T10:05:29;12.40;99.90
48535;DHT22;34323;52.022;5.686;2024-03-23T10:07:57;12.90;99.90
48535;DHT22;34323;52.022;5.686;2024-03-23T10:10:25;13.40;99.90
48535;DHT22;34323;52.022;5.686;2024-03-23T10:12:51;13.70;99.90
48535;DHT22;34323;52.022;5.686;2024-03-23T10:15:22;14.00;99.90
48535;DHT22;34323;52.022;5.686;2024-03-23T10:17:49;14.10;99.90
48535;DHT22;34323;52.022;5.686;2024-03-23T10:20:23;13.90;99.90
48535;DHT22;34323;52.022;5.686;2024-03-23T10:22:51;13.40;99.90
48535;DHT22;34323;52.022;5.686;2024-03-23T10:25:18;13.30;99.90
48535;DHT22;34323;52.022;5.686;2024-03-23T10:27:59;12.50;99.90
48535;DHT22;34323;52.022;5.686;2024-03-23T10:30:25;12.70;99.90
48535;DHT22;34323;52.022;5.686;2024-03-23T10:33:10;13.00;99.90
48535;DHT22;34323;52.022;5.686;2024-03-23T10:35:37;13.60;99.90
48535;DHT22;34323;52.022;5.686;2024-03-23T10:38:07;14.00;99.90
48535;DHT22;34323;52.022;5.686;2024-03-23T10:40:37;13.60;99.90
48535;DHT22;34323;52.022;5.686;2024-03-23T10:43:06;13.90;99.90
48535;DHT22;34323;52.022;5.686;2024-03-23T10:45:34;14.00;99.90
48535;DHT22;34323;52.022;5.686;2024-03-23T10:48:00;13.50;99.90
48535;DHT22;34323;52.022;5.686;2024-03-23T10:50:26;13.30;99.90
48535;DHT22;34323;52.022;5.686;2024-03-23T10:52:53;13.00;99.90
48535;DHT22;34323;52.022;5.686;2024-03-23T10:55:23;13.00;99.90
48535;DHT22;34323;52.022;5.686;2024-03-23T10:57:54;13.20;99.90
48535;DHT22;34323;52.022;5.686;2024-03-23T11:00:21;13.30;99.90
48535;DHT22;34323;52.022;5.686;2024-03-23T11:02:48;13.30;99.90
48535;DHT22;34323;52.022;5.686;2024-03-23T11:07:52;13.20;99.90
48535;DHT22;34323;52.022;5.686;2024-03-23T11:10:28;13.50;99.90
48535;DHT22;34323;52.022;5.686;2024-03-23T11:12:58;13.90;99.90
48535;DHT22;34323;52.022;5.686;2024-03-23T11:15:44;13.60;99.90
48535;DHT22;34323;52.022;5.686;2024-03-23T11:18:09;13.50;99.90
48535;DHT22;34323;52.022;5.686;2024-03-23T11:20:36;13.60;99.90
48535;DHT22;34323;52.022;5.686;2024-03-23T11:23:04;13.90;99.90
48535;DHT22;34323;52.022;5.686;2024-03-23T11:25:30;14.00;99.90
48535;DHT22;34323;52.022;5.686;2024-03-23T11:28:12;14.40;99.90
48535;DHT22;34323;52.022;5.686;2024-03-23T11:30:38;14.70;99.90
48535;DHT22;34323;52.022;5.686;2024-03-23T11:33:04;14.90;99.90
48535;DHT22;34323;52.022;5.686;2024-03-23T11:38:20;13.70;99.90
48535;DHT22;34323;52.022;5.686;2024-03-23T11:40:48;13.70;99.90
48535;DHT22;34323;52.022;5.686;2024-03-23T11:43:18;13.80;99.90
48535;DHT22;34323;52.022;5.686;2024-03-23T11:45:46;13.90;99.90
48535;DHT22;34323;52.022;5.686;2024-03-23T11:48:17;14.10;99.90
48535;DHT22;34323;52.022;5.686;2024-03-23T11:50:45;13.80;99.90
48535;DHT22;34323;52.022;5.686;2024-03-23T11:53:12;13.50;99.90
48535;DHT22;34323;52.022;5.686;2024-03-23T11:55:52;13.40;99.90
48535;DHT22;34323;52.022;5.686;2024-03-23T11:58:19;13.40;99.90
48535;DHT22;34323;52.022;5.686;2024-03-23T12:00:58;13.60;99.90
48535;DHT22;34323;52.022;5.686;2024-03-23T12:03:25;13.10;99.90
48535;DHT22;34323;52.022;5.686;2024-03-23T12:05:52;12.90;99.90
48535;DHT22;34323;52.022;5.686;2024-03-23T12:08:34;13.40;99.90
48535;DHT22;34323;52.022;5.686;2024-03-23T12:11:17;13.40;99.90
48535;DHT22;34323;52.022;5.686;2024-03-23T12:13:45;14.00;99.90
48535;DHT22;34323;52.022;5.686;2024-03-23T12:16:18;14.50;99.90
48535;DHT22;34323;52.022;5.686;2024-03-23T12:18:49;14.80;99.90
48535;DHT22;34323;52.022;5.686;2024-03-23T12:21:16;15.30;99.90
48535;DHT22;34323;52.022;5.686;2024-03-23T12:23:43;15.40;99.90
48535;DHT22;34323;52.022;5.686;2024-03-23T12:26:14;15.40;99.90
48535;DHT22;34323;52.022;5.686;2024-03-23T12:28:40;15.40;99.90
48535;DHT22;34323;52.022;5.686;2024-03-23T12:31:05;15.30;99.90
48535;DHT22;34323;52.022;5.686;2024-03-23T12:33:31;15.10;99.90
48535;DHT22;34323;52.022;5.686;2024-03-23T12:35:57;14.60;99.90
48535;DHT22;34323;52.022;5.686;2024-03-23T12:38:23;14.20;99.90
48535;DHT22;34323;52.022;5.686;2024-03-23T12:40:50;14.40;99.90
48535;DHT22;34323;52.022;5.686;2024-03-23T12:43:19;14.50;99.90
48535;DHT22;34323;52.022;5.686;2024-03-23T12:45:49;14.10;99.90
48535;DHT22;34323;52.022;5.686;2024-03-23T12:48:15;14.00;99.90
48535;DHT22;34323;52.022;5.686;2024-03-23T12:50:41;14.00;99.90
48535;DHT22;34323;52.022;5.686;2024-03-23T12:53:07;14.30;99.90
48535;DHT22;34323;52.022;5.686;2024-03-23T12:55:36;14.70;99.90
48535;DHT22;34323;52.022;5.686;2024-03-23T12:58:02;14.90;99.90
48535;DHT22;34323;52.022;5.686;2024-03-23T13:00:29;14.70;99.90
48535;DHT22;34323;52.022;5.686;2024-03-23T13:02:54;14.50;99.90
48535;DHT22;34323;52.022;5.686;2024-03-23T13:05:20;14.50;99.90
48535;DHT22;34323;52.022;5.686;2024-03-23T13:07:46;14.50;99.90
48535;DHT22;34323;52.022;5.686;2024-03-23T13:10:12;14.40;99.90
48535;DHT22;34323;52.022;5.686;2024-03-23T13:12:38;14.50;99.90
48535;DHT22;34323;52.022;5.686;2024-03-23T13:15:05;14.80;99.90
48535;DHT22;34323;52.022;5.686;2024-03-23T13:17:31;14.80;99.90
48535;DHT22;34323;52.022;5.686;2024-03-23T13:19:56;15.10;99.90
48535;DHT22;34323;52.022;5.686;2024-03-23T13:22:22;15.50;99.90
48535;DHT22;34323;52.022;5.686;2024-03-23T13:24:48;16.10;99.90
48535;DHT22;34323;52.022;5.686;2024-03-23T13:27:14;16.80;99.90
48535;DHT22;34323;52.022;5.686;2024-03-23T13:29:40;17.80;99.90
48535;DHT22;34323;52.022;5.686;2024-03-23T13:32:06;19.10;99.90
48535;DHT22;34323;52.022;5.686;2024-03-23T13:34:33;18.90;99.90
48535;DHT22;34323;52.022;5.686;2024-03-23T13:37:00;18.60;99.90
48535;DHT22;34323;52.022;5.686;2024-03-23T13:39:26;18.90;99.90
48535;DHT22;34323;52.022;5.686;2024-03-23T13:41:55;18.90;99.90
48535;DHT22;34323;52.022;5.686;2024-03-23T13:44:21;18.80;99.90
48535;DHT22;34323;52.022;5.686;2024-03-23T13:46:47;18.50;99.90
48535;DHT22;34323;52.022;5.686;2024-03-23T13:49:30;17.50;99.90
48535;DHT22;34323;52.022;5.686;2024-03-23T13:51:58;16.30;99.90
48535;DHT22;34323;52.022;5.686;2024-03-23T13:54:25;15.50;99.90
48535;DHT22;34323;52.022;5.686;2024-03-23T13:56:51;15.10;99.90
48535;DHT22;34323;52.022;5.686;2024-03-23T13:59:17;15.10;99.90
48535;DHT22;34323;52.022;5.686;2024-03-23T14:01:44;14.80;99.90
48535;DHT22;34323;52.022;5.686;2024-03-23T14:04:11;14.40;99.90
48535;DHT22;34323;52.022;5.686;2024-03-23T14:06:37;14.50;99.90
48535;DHT22;34323;52.022;5.686;2024-03-23T14:09:03;15.20;99.90
48535;DHT22;34323;52.022;5.686;2024-03-23T14:11:29;16.40;99.90
48535;DHT22;34323;52.022;5.686;2024-03-23T14:13:55;17.30;99.90
48535;DHT22;34323;52.022;5.686;2024-03-23T14:16:21;17.20;99.90
48535;DHT22;34323;52.022;5.686;2024-03-23T14:18:47;17.00;99.90
48535;DHT22;34323;52.022;5.686;2024-03-23T14:21:13;15.40;99.90
48535;DHT22;34323;52.022;5.686;2024-03-23T14:23:39;14.60;99.90
48535;DHT22;34323;52.022;5.686;2024-03-23T14:26:06;14.50;99.90
48535;DHT22;34323;52.022;5.686;2024-03-23T14:28:32;14.80;99.90
48535;DHT22;34323;52.022;5.686;2024-03-23T14:30:58;14.70;99.90
48535;DHT22;34323;52.022;5.686;2024-03-23T14:33:24;15.10;99.90
48535;DHT22;34323;52.022;5.686;2024-03-23T14:35:54;15.90;99.90
48535;DHT22;34323;52.022;5.686;2024-03-23T14:38:21;17.10;99.90
48535;DHT22;34323;52.022;5.686;2024-03-23T14:40:47;18.50;99.90
48535;DHT22;34323;52.022;5.686;2024-03-23T14:43:13;19.80;99.90
48535;DHT22;34323;52.022;5.686;2024-03-23T14:46:13;21.40;99.90
48535;DHT22;34323;52.022;5.686;2024-03-23T14:48:40;22.90;99.90
48535;DHT22;34323;52.022;5.686;2024-03-23T14:51:07;23.40;99.90
48535;DHT22;34323;52.022;5.686;2024-03-23T14:53:35;24.30;99.90
48535;DHT22;34323;52.022;5.686;2024-03-23T14:56:01;24.50;99.90
48535;DHT22;34323;52.022;5.686;2024-03-23T14:58:28;24.30;99.90
48535;DHT22;34323;52.022;5.686;2024-03-23T15:01:03;24.20;99.90
48535;DHT22;34323;52.022;5.686;2024-03-23T15:03:30;24.10;99.90
48535;DHT22;34323;52.022;5.686;2024-03-23T15:05:56;24.40;99.90
48535;DHT22;34323;52.022;5.686;2024-03-23T15:08:23;24.10;99.90
48535;DHT22;34323;52.022;5.686;2024-03-23T15:10:49;23.20;99.90
48535;DHT22;34323;52.022;5.686;2024-03-23T15:13:15;21.40;99.90
48535;DHT22;34323;52.022;5.686;2024-03-23T15:15:42;20.30;99.90
48535;DHT22;34323;52.022;5.686;2024-03-23T15:18:13;18.90;99.90
48535;DHT22;34323;52.022;5.686;2024-03-23T15:20:41;18.30;99.90
48535;DHT22;34323;52.022;5.686;2024-03-23T15:23:07;18.00;99.90
48535;DHT22;34323;52.022;5.686;2024-03-23T15:25:33;18.40;99.90
48535;DHT22;34323;52.022;5.686;2024-03-23T15:27:59;18.60;99.90
48535;DHT22;34323;52.022;5.686;2024-03-23T15:30:26;19.20;99.90
48535;DHT22;34323;52.022;5.686;2024-03-23T15:32:52;19.20;99.90
48535;DHT22;34323;52.022;5.686;2024-03-23T15:35:18;19.50;99.90
48535;DHT22;34323;52.022;5.686;2024-03-23T15:37:46;19.80;99.90
48535;DHT22;34323;52.022;5.686;2024-03-23T15:40:12;20.00;99.90
48535;DHT22;34323;52.022;5.686;2024-03-23T15:42:38;19.60;99.90
48535;DHT22;34323;52.022;5.686;2024-03-23T15:45:08;19.30;99.90
48535;DHT22;34323;52.022;5.686;2024-03-23T15:47:35;19.20;99.90
48535;DHT22;34323;52.022;5.686;2024-03-23T15:50:01;19.40;99.90
48535;DHT22;34323;52.022;5.686;2024-03-23T15:52:29;19.10;99.90
48535;DHT22;34323;52.022;5.686;2024-03-23T15:54:54;18.60;99.90
48535;DHT22;34323;52.022;5.686;2024-03-23T15:57:23;17.90;99.90
48535;DHT22;34323;52.022;5.686;2024-03-23T15:59:50;16.60;99.90
48535;DHT22;34323;52.022;5.686;2024-03-23T16:02:16;16.20;99.90
48535;DHT22;34323;52.022;5.686;2024-03-23T16:04:42;16.20;99.90
48535;DHT22;34323;52.022;5.686;2024-03-23T16:07:11;16.30;99.90
48535;DHT22;34323;52.022;5.686;2024-03-23T16:09:36;15.60;99.90
48535;DHT22;34323;52.022;5.686;2024-03-23T16:12:03;15.10;99.90
48535;DHT22;34323;52.022;5.686;2024-03-23T16:14:29;15.20;99.90
48535;DHT22;34323;52.022;5.686;2024-03-23T16:16:55;15.40;99.90
48535;DHT22;34323;52.022;5.686;2024-03-23T16:19:21;15.00;99.90
48535;DHT22;34323;52.022;5.686;2024-03-23T16:21:48;14.60;99.90
48535;DHT22;34323;52.022;5.686;2024-03-23T16:24:14;14.10;99.90
48535;DHT22;34323;52.022;5.686;2024-03-23T16:26:39;14.40;99.90
48535;DHT22;34323;52.022;5.686;2024-03-23T16:29:05;14.60;99.90